Apollonia — 9HEQ7 — position and weather

sailwx.info

Track history (hours):
 
Tides and Currents Weather Stations Pressure Air Temp Water Temp Dewpoint Dewpoint Depression Visibility Wind Speed Wind Dir Waves Ship Positions

Apollonia

Last reported at 2018-Jan-23 04:06 UTC. Time now 2018-Jan-23 06:16 UTC.
Position N 36°11' W 026°39'.

Length 164 m; draft 10.2 m.

Type: Cargo ship. MMSI: 215160000.

Date/timePositionNaut miles runAvg speedWind from/ knotsBaromVisibWave heightAir tempDewpointWater temp
2018-Jan-23 04:06N 36°11' W 026°39'112.5
2018-Jan-23 04:00N 36°11' W 026°37'612.1
2018-Jan-23 03:31N 36°12' W 026°30'812.5
2018-Jan-23 02:55N 36°14' W 026°21'512.4
2018-Jan-23 02:30N 36°15' W 026°15'612.4
2018-Jan-23 02:00N 36°16' W 026°07'612.5
2018-Jan-23 01:31N 36°18' W 026°00'612.5
2018-Jan-23 01:00N 36°20' W 025°53'612.7
2018-Jan-23 00:31N 36°22' W 025°45'612.6
2018-Jan-23 00:00N 36°23' W 025°38'612.5
2018-Jan-22 23:30N 36°25' W 025°30'612.6
2018-Jan-22 23:01N 36°27' W 025°22'612.6
2018-Jan-22 22:30N 36°28' W 025°15'612.1
2018-Jan-22 22:01N 36°29' W 025°07'612.3
2018-Jan-22 21:31N 36°30' W 024°60'612.5
2018-Jan-22 21:01N 36°33' W 024°53'612.8
2018-Jan-22 20:31N 36°37' W 024°47'612.6
2018-Jan-22 20:00N 36°40' W 024°40'612.2
2018-Jan-22 19:30N 36°43' W 024°34'612.6
2018-Jan-22 19:01N 36°47' W 024°27'612.3
2018-Jan-22 18:30N 36°50' W 024°21'612.3
2018-Jan-22 18:01N 36°53' W 024°14'612.7
2018-Jan-22 17:30N 36°57' W 024°07'612.6
2018-Jan-22 17:01N 36°60' W 024°00'612.4
2018-Jan-22 16:30N 37°03' W 023°54'612.7
2018-Jan-22 16:00N 37°06' W 023°47'712.9
2018-Jan-22 15:30N 37°10' W 023°40'712.9
2018-Jan-22 15:00N 37°14' W 023°33'  
2018-Jan-18 15:18N 47°00' W 002°41'3 9.2
2018-Jan-18 15:00N 47°01' W 002°37'5 9.0
2018-Jan-18 14:30N 47°03' W 002°31'6 7.3
2018-Jan-18 13:37N 47°09' W 002°26'0 0.3
2018-Jan-18 13:30N 47°09' W 002°26'0 0.3
2018-Jan-18 12:54N 47°09' W 002°26'0 0.0
2018-Jan-18 12:24N 47°09' W 002°26'0 0.0
2018-Jan-18 10:12N 47°09' W 002°26'0 0.1
2018-Jan-18 09:54N 47°09' W 002°26'0 0.0
2018-Jan-18 09:18N 47°09' W 002°26'0 0.0
2018-Jan-18 09:00N 47°09' W 002°26'0 0.0
2018-Jan-18 08:30N 47°09' W 002°26'0 0.0
2018-Jan-18 07:45N 47°09' W 002°26'0 0.0
2018-Jan-18 07:27N 47°09' W 002°26'0 0.1
2018-Jan-18 07:00N 47°09' W 002°26'0 0.0
2018-Jan-18 06:30N 47°09' W 002°26'0 0.0
2018-Jan-18 05:54N 47°09' W 002°26'0 0.0
2018-Jan-18 05:30N 47°09' W 002°26'0 0.0
2018-Jan-18 05:00N 47°09' W 002°26'0 0.0
2018-Jan-18 04:30N 47°09' W 002°26'0 0.0
2018-Jan-18 03:57N 47°09' W 002°26'0 0.0
2018-Jan-18 03:21N 47°09' W 002°26'0 0.0
2018-Jan-18 03:00N 47°09' W 002°26'0 0.0
2018-Jan-18 02:30N 47°09' W 002°26'0 0.0
2018-Jan-18 02:00N 47°09' W 002°26'0 0.1
2018-Jan-18 01:30N 47°09' W 002°26'0 0.0
2018-Jan-18 00:57N 47°09' W 002°26'0 0.0
2018-Jan-18 00:00N 47°09' W 002°26'0 0.1
2018-Jan-17 23:51N 47°09' W 002°26'  
Track history (hours):
 
Tides and Currents Weather Stations Pressure Air Temp Water Temp Dewpoint Dewpoint Depression Visibility Wind Speed Wind Dir Waves Ship Positions

Apollonia

Last reported at 2018-Jan-23 04:06 UTC. Time now 2018-Jan-23 06:16 UTC.
Position N 36°11' W 026°39'.

Length 164 m; draft 10.2 m.

Type: Cargo ship. MMSI: 215160000.

Date/timePositionNaut miles runAvg speedWind from/ knotsBaromVisibWave heightAir tempDewpointWater temp
2018-Jan-23 04:06N 36°11' W 026°39'112.5
2018-Jan-23 04:00N 36°11' W 026°37'612.1
2018-Jan-23 03:31N 36°12' W 026°30'812.5
2018-Jan-23 02:55N 36°14' W 026°21'512.4
2018-Jan-23 02:30N 36°15' W 026°15'612.4
2018-Jan-23 02:00N 36°16' W 026°07'612.5
2018-Jan-23 01:31N 36°18' W 026°00'612.5
2018-Jan-23 01:00N 36°20' W 025°53'612.7
2018-Jan-23 00:31N 36°22' W 025°45'612.6
2018-Jan-23 00:00N 36°23' W 025°38'612.5
2018-Jan-22 23:30N 36°25' W 025°30'612.6
2018-Jan-22 23:01N 36°27' W 025°22'612.6
2018-Jan-22 22:30N 36°28' W 025°15'612.1
2018-Jan-22 22:01N 36°29' W 025°07'612.3
2018-Jan-22 21:31N 36°30' W 024°60'612.5
2018-Jan-22 21:01N 36°33' W 024°53'612.8
2018-Jan-22 20:31N 36°37' W 024°47'612.6
2018-Jan-22 20:00N 36°40' W 024°40'612.2
2018-Jan-22 19:30N 36°43' W 024°34'612.6
2018-Jan-22 19:01N 36°47' W 024°27'612.3
2018-Jan-22 18:30N 36°50' W 024°21'612.3
2018-Jan-22 18:01N 36°53' W 024°14'612.7
2018-Jan-22 17:30N 36°57' W 024°07'612.6
2018-Jan-22 17:01N 36°60' W 024°00'612.4
2018-Jan-22 16:30N 37°03' W 023°54'612.7
2018-Jan-22 16:00N 37°06' W 023°47'712.9
2018-Jan-22 15:30N 37°10' W 023°40'712.9
2018-Jan-22 15:00N 37°14' W 023°33'  
2018-Jan-18 15:18N 47°00' W 002°41'3 9.2
2018-Jan-18 15:00N 47°01' W 002°37'5 9.0
2018-Jan-18 14:30N 47°03' W 002°31'6 7.3
2018-Jan-18 13:37N 47°09' W 002°26'0 0.3
2018-Jan-18 13:30N 47°09' W 002°26'0 0.3
2018-Jan-18 12:54N 47°09' W 002°26'0 0.0
2018-Jan-18 12:24N 47°09' W 002°26'0 0.0
2018-Jan-18 10:12N 47°09' W 002°26'0 0.1
2018-Jan-18 09:54N 47°09' W 002°26'0 0.0
2018-Jan-18 09:18N 47°09' W 002°26'0 0.0
2018-Jan-18 09:00N 47°09' W 002°26'0 0.0
2018-Jan-18 08:30N 47°09' W 002°26'0 0.0
2018-Jan-18 07:45N 47°09' W 002°26'0 0.0
2018-Jan-18 07:27N 47°09' W 002°26'0 0.1
2018-Jan-18 07:00N 47°09' W 002°26'0 0.0
2018-Jan-18 06:30N 47°09' W 002°26'0 0.0
2018-Jan-18 05:54N 47°09' W 002°26'0 0.0
2018-Jan-18 05:30N 47°09' W 002°26'0 0.0
2018-Jan-18 05:00N 47°09' W 002°26'0 0.0
2018-Jan-18 04:30N 47°09' W 002°26'0 0.0
2018-Jan-18 03:57N 47°09' W 002°26'0 0.0
2018-Jan-18 03:21N 47°09' W 002°26'0 0.0
2018-Jan-18 03:00N 47°09' W 002°26'0 0.0
2018-Jan-18 02:30N 47°09' W 002°26'0 0.0
2018-Jan-18 02:00N 47°09' W 002°26'0 0.1
2018-Jan-18 01:30N 47°09' W 002°26'0 0.0
2018-Jan-18 00:57N 47°09' W 002°26'0 0.0
2018-Jan-18 00:00N 47°09' W 002°26'0 0.1
2018-Jan-17 23:51N 47°09' W 002°26'  

Dump ship's entire track history